Time;durP1;ratioP1;P1;durP2;ratioP2;P2;SDS_P1;SDS_P2;PMS_P1;PMS_P2;Temp;Humidity;BMP_temperature;BMP_pressure;BME280_temperature;BME280_humidity;BME280_pressure;Samples;Min_cycle;Max_cycle;Signal;HPM_P1;HPM_P2
2021/03/08 00:01:19;;;;;;;20.85;8.10;;;;;;;;;;5060591;28;20103;-50
2021/03/08 00:03:45;;;;;;;15.23;6.93;;;;;;;;;;5060445;28;20035;-50
2021/03/08 00:06:11;;;;;;;17.77;7.40;;;;;;;;;;5062929;28;20532;-50
2021/03/08 00:08:37;;;;;;;21.20;9.18;;;;;;;;;;5059231;28;20032;-50
2021/03/08 00:11:03;;;;;;;15.00;7.18;;;;;;;;;;5064491;28;20031;-50
2021/03/08 00:13:29;;;;;;;16.92;7.72;;;;;;;;;;5063587;28;20476;-51
2021/03/08 00:15:55;;;;;;;21.33;7.65;;;;;;;;;;5068139;28;20025;-50
2021/03/08 00:18:21;;;;;;;17.27;7.68;;;;;;;;;;5060101;28;20024;-50
2021/03/08 00:20:47;;;;;;;16.95;7.45;;;;;;;;;;5059667;28;20394;-50
2021/03/08 00:23:13;;;;;;;20.25;7.97;;;;;;;;;;5063361;28;20450;-50
2021/03/08 00:25:39;;;;;;;21.50;8.10;;;;;;;;;;5065034;28;20029;-50
2021/03/08 00:28:06;;;;;;;15.98;7.50;;;;;;;;;;5065733;28;20020;-50
2021/03/08 00:30:32;;;;;;;18.20;8.43;;;;;;;;;;5065375;28;20016;-51
2021/03/08 00:32:58;;;;;;;17.70;7.97;;;;;;;;;;5062421;28;20388;-51
2021/03/08 00:35:24;;;;;;;18.17;7.30;;;;;;;;;;5061540;28;20017;-51
2021/03/08 00:37:51;;;;;;;22.05;7.82;;;;;;;;;;5062919;28;20048;-50
2021/03/08 00:40:18;;;;;;;21.77;8.38;;;;;;;;;;5061578;28;20032;-50
2021/03/08 00:42:45;;;;;;;19.67;8.63;;;;;;;;;;5063932;28;20032;-50
2021/03/08 00:45:17;;;;;;;17.08;7.53;;;;;;;;;;5067523;28;20020;-50
2021/03/08 00:47:44;;;;;;;17.05;8.43;;;;;;;;;;5056051;28;20405;-50
2021/03/08 00:50:15;;;;;;;13.98;7.00;;;;;;;;;;5062751;28;20457;-50
2021/03/08 00:52:41;;;;;;;16.17;7.45;;;;;;;;;;5062144;28;20044;-50
2021/03/08 00:55:08;;;;;;;20.40;7.47;;;;;;;;;;5067189;28;20020;-50
2021/03/08 00:57:34;;;;;;;21.83;9.45;;;;;;;;;;5065156;28;20063;-50
2021/03/08 01:00:00;;;;;;;32.67;11.93;;;;;;;;;;5060289;28;20048;-50
2021/03/08 01:02:26;;;;;;;44.80;15.38;;;;;;;;;;5064721;28;20490;-50
2021/03/08 01:04:52;;;;;;;24.15;10.93;;;;;;;;;;5067186;28;20017;-50
2021/03/08 01:07:18;;;;;;;22.27;9.07;;;;;;;;;;5069604;28;20546;-51
2021/03/08 01:09:43;;;;;;;19.05;8.18;;;;;;;;;;5067309;28;20060;-50
2021/03/08 01:12:10;;;;;;;19.33;8.25;;;;;;;;;;5066059;28;20319;-50
2021/03/08 01:14:37;;;;;;;26.15;9.40;;;;;;;;;;5070097;28;20358;-50
2021/03/08 01:17:03;;;;;;;20.80;9.45;;;;;;;;;;5068021;28;20027;-50
2021/03/08 01:19:30;;;;;;;20.02;8.32;;;;;;;;;;5070073;28;20033;-50
2021/03/08 01:21:56;;;;;;;18.55;8.30;;;;;;;;;;5063466;28;20063;-50
2021/03/08 01:24:22;;;;;;;18.65;8.45;;;;;;;;;;5066240;28;20056;-50
2021/03/08 01:26:48;;;;;;;18.02;8.00;;;;;;;;;;5064550;28;20047;-50
2021/03/08 01:29:14;;;;;;;18.42;8.18;;;;;;;;;;5068182;28;20025;-50
2021/03/08 01:31:40;;;;;;;27.90;8.25;;;;;;;;;;5069325;28;20056;-50
2021/03/08 01:34:06;;;;;;;15.85;7.57;;;;;;;;;;5067334;28;20075;-50
2021/03/08 01:36:32;;;;;;;21.15;8.20;;;;;;;;;;5070061;28;20107;-50
2021/03/08 01:38:58;;;;;;;18.67;8.25;;;;;;;;;;5070589;28;20511;-50
2021/03/08 01:41:24;;;;;;;20.17;7.28;;;;;;;;;;5066222;28;20025;-50
2021/03/08 01:43:50;;;;;;;18.20;7.40;;;;;;;;;;5066804;28;20056;-50
2021/03/08 01:46:16;;;;;;;12.70;7.05;;;;;;;;;;5067032;28;20055;-50
2021/03/08 01:48:42;;;;;;;15.68;7.65;;;;;;;;;;5069315;28;20104;-50
2021/03/08 01:51:08;;;;;;;15.38;6.25;;;;;;;;;;5068401;28;20025;-51
2021/03/08 01:53:35;;;;;;;23.23;7.70;;;;;;;;;;5068745;28;20335;-50
2021/03/08 01:56:02;;;;;;;14.65;6.75;;;;;;;;;;5070741;28;20013;-50
2021/03/08 01:58:28;;;;;;;17.58;7.75;;;;;;;;;;5068312;28;20378;-50
2021/03/08 02:00:55;;;;;;;16.63;7.00;;;;;;;;;;5075099;28;20047;-51
2021/03/08 02:03:21;;;;;;;19.30;7.63;;;;;;;;;;5070524;28;20024;-50
2021/03/08 02:05:47;;;;;;;17.63;7.45;;;;;;;;;;5071358;28;20029;-50
2021/03/08 02:08:15;;;;;;;11.90;5.90;;;;;;;;;;5071126;28;20042;-50
2021/03/08 02:10:42;;;;;;;17.23;7.57;;;;;;;;;;5066409;28;20032;-50
2021/03/08 02:13:43;;;;;;;18.90;7.43;;;;;;;;;;5068884;28;20108;-50
2021/03/08 02:16:13;;;;;;;16.10;7.13;;;;;;;;;;5066126;28;20093;-50
2021/03/08 02:18:57;;;;;;;17.30;6.57;;;;;;;;;;5060783;28;20040;-50
2021/03/08 02:21:52;;;;;;;12.77;5.60;;;;;;;;;;5055573;28;20086;-50
2021/03/08 02:24:27;;;;;;;20.40;7.40;;;;;;;;;;5054314;28;20052;-50
2021/03/08 02:26:56;;;;;;;14.18;7.10;;;;;;;;;;5072839;28;20339;-50
2021/03/08 02:29:34;;;;;;;16.88;7.07;;;;;;;;;;5072331;28;20037;-50
2021/03/08 02:32:02;;;;;;;16.63;6.38;;;;;;;;;;5070090;28;20078;-50
2021/03/08 02:34:30;;;;;;;12.52;5.88;;;;;;;;;;5071115;28;20105;-50
2021/03/08 02:37:01;;;;;;;12.77;5.97;;;;;;;;;;5072700;28;20041;-50
2021/03/08 02:39:29;;;;;;;10.25;6.35;;;;;;;;;;5072974;28;20032;-50
2021/03/08 02:41:57;;;;;;;16.65;6.13;;;;;;;;;;5066389;28;20041;-50
2021/03/08 02:44:28;;;;;;;16.60;6.40;;;;;;;;;;5069995;28;20123;-50
2021/03/08 02:46:56;;;;;;;15.15;6.03;;;;;;;;;;5070998;28;20029;-50
2021/03/08 02:49:23;;;;;;;13.65;6.07;;;;;;;;;;5072273;28;20024;-50
2021/03/08 02:51:57;;;;;;;16.25;6.35;;;;;;;;;;5072385;28;20043;-50
2021/03/08 02:54:25;;;;;;;12.75;6.45;;;;;;;;;;5070290;28;20173;-50
2021/03/08 02:56:52;;;;;;;12.25;5.85;;;;;;;;;;5072391;28;20028;-50
2021/03/08 02:59:19;;;;;;;15.65;6.72;;;;;;;;;;5071765;28;20493;-50
2021/03/08 03:01:46;;;;;;;11.27;6.10;;;;;;;;;;5055604;28;20056;-50
2021/03/08 03:04:13;;;;;;;15.43;7.22;;;;;;;;;;5055116;28;20032;-50
2021/03/08 03:06:39;;;;;;;15.88;6.82;;;;;;;;;;5068150;28;20117;-50
2021/03/08 03:09:08;;;;;;;15.55;6.72;;;;;;;;;;5074361;28;20036;-50
2021/03/08 03:11:36;;;;;;;19.25;7.13;;;;;;;;;;5074657;28;20343;-50
2021/03/08 03:14:03;;;;;;;21.05;7.68;;;;;;;;;;5074308;28;20043;-51
2021/03/08 03:16:29;;;;;;;16.15;7.13;;;;;;;;;;5058344;28;20429;-50
2021/03/08 03:18:56;;;;;;;20.80;8.50;;;;;;;;;;5054141;28;20129;-50
2021/03/08 03:21:24;;;;;;;14.30;6.82;;;;;;;;;;5053945;28;20052;-50
2021/03/08 03:23:51;;;;;;;16.38;7.25;;;;;;;;;;5054332;28;20473;-51
2021/03/08 03:26:18;;;;;;;16.52;6.85;;;;;;;;;;5055332;28;20035;-50
2021/03/08 03:28:45;;;;;;;13.93;6.80;;;;;;;;;;5053445;28;20112;-51
2021/03/08 03:31:11;;;;;;;18.00;8.20;;;;;;;;;;5053927;28;20358;-50
2021/03/08 03:33:38;;;;;;;15.48;7.22;;;;;;;;;;5053986;28;20037;-51
2021/03/08 03:36:04;;;;;;;16.92;7.20;;;;;;;;;;5053997;28;20098;-50
2021/03/08 03:38:31;;;;;;;18.35;7.25;;;;;;;;;;5050621;28;20446;-51
2021/03/08 03:40:57;;;;;;;15.23;7.72;;;;;;;;;;5053798;28;20028;-50
2021/03/08 03:43:23;;;;;;;18.27;7.32;;;;;;;;;;5061427;28;20043;-51
2021/03/08 03:45:49;;;;;;;13.65;6.32;;;;;;;;;;5073685;28;20487;-50
2021/03/08 03:48:15;;;;;;;19.13;7.97;;;;;;;;;;5072002;28;20107;-51
2021/03/08 03:50:41;;;;;;;17.70;7.88;;;;;;;;;;5073656;28;20111;-50
2021/03/08 03:53:08;;;;;;;16.60;8.05;;;;;;;;;;5073170;28;20036;-50
2021/03/08 03:55:34;;;;;;;13.85;6.32;;;;;;;;;;5073639;28;20441;-51
2021/03/08 03:58:05;;;;;;;13.95;6.00;;;;;;;;;;5066717;28;20041;-50
2021/03/08 04:00:34;;;;;;;18.05;7.10;;;;;;;;;;5053574;28;20025;-50
2021/03/08 04:03:03;;;;;;;15.85;6.93;;;;;;;;;;5053629;28;20078;-50
2021/03/08 04:05:29;;;;;;;15.10;7.18;;;;;;;;;;5053287;28;20059;-50
2021/03/08 04:07:56;;;;;;;21.13;7.28;;;;;;;;;;5064604;28;20472;-50
2021/03/08 04:10:22;;;;;;;18.10;7.18;;;;;;;;;;5070717;28;20120;-50
2021/03/08 04:12:53;;;;;;;16.30;8.10;;;;;;;;;;5053745;28;20037;-50
2021/03/08 04:15:20;;;;;;;14.88;6.75;;;;;;;;;;5053400;28;20033;-50
2021/03/08 04:17:46;;;;;;;12.45;6.57;;;;;;;;;;5058395;28;20025;-50
2021/03/08 04:20:22;;;;;;;12.18;6.25;;;;;;;;;;5071155;28;20074;-50
2021/03/08 04:22:49;;;;;;;21.08;7.95;;;;;;;;;;5053849;28;20033;-51
2021/03/08 04:25:16;;;;;;;23.17;7.45;;;;;;;;;;5053035;28;20431;-50
2021/03/08 04:27:42;;;;;;;15.27;6.57;;;;;;;;;;5053080;28;20025;-51
2021/03/08 04:30:08;;;;;;;16.02;6.45;;;;;;;;;;5054197;28;20036;-51
2021/03/08 04:32:35;;;;;;;14.10;6.88;;;;;;;;;;5052955;28;20033;-51
2021/03/08 04:35:01;;;;;;;19.50;7.80;;;;;;;;;;5052729;28;20036;-51
2021/03/08 04:37:28;;;;;;;15.63;7.10;;;;;;;;;;5052574;28;20029;-50
2021/03/08 04:39:54;;;;;;;15.73;7.38;;;;;;;;;;5067813;28;20468;-51
2021/03/08 04:42:21;;;;;;;19.88;6.88;;;;;;;;;;5071023;28;20040;-51
2021/03/08 04:44:48;;;;;;;10.70;5.93;;;;;;;;;;5054416;28;20447;-50
2021/03/08 04:47:16;;;;;;;17.58;6.90;;;;;;;;;;5052856;28;20025;-50
2021/03/08 04:49:42;;;;;;;14.38;5.75;;;;;;;;;;5052573;28;20087;-50
2021/03/08 04:52:09;;;;;;;13.35;6.20;;;;;;;;;;5054289;28;20110;-51
2021/03/08 04:54:35;;;;;;;19.00;7.20;;;;;;;;;;5052689;28;20435;-51
2021/03/08 04:57:01;;;;;;;18.02;8.25;;;;;;;;;;5052999;28;20049;-51
2021/03/08 04:59:27;;;;;;;15.50;7.82;;;;;;;;;;5072923;28;20031;-50
2021/03/08 05:01:54;;;;;;;13.90;6.82;;;;;;;;;;5071013;28;20020;-50
2021/03/08 05:04:21;;;;;;;13.13;6.88;;;;;;;;;;5072723;28;20028;-50
2021/03/08 05:06:47;;;;;;;14.75;6.55;;;;;;;;;;5062397;28;20354;-50
2021/03/08 05:09:14;;;;;;;14.95;7.13;;;;;;;;;;5072428;28;20458;-51
2021/03/08 05:11:41;;;;;;;16.02;6.88;;;;;;;;;;5072522;28;20029;-50
2021/03/08 05:14:10;;;;;;;18.92;7.03;;;;;;;;;;5071058;28;20428;-50
2021/03/08 05:16:38;;;;;;;16.98;7.38;;;;;;;;;;5072714;28;20028;-50
2021/03/08 05:19:05;;;;;;;13.98;6.57;;;;;;;;;;5055619;28;20033;-50
2021/03/08 05:21:32;;;;;;;14.18;6.45;;;;;;;;;;5052985;28;20342;-51
2021/03/08 05:23:58;;;;;;;19.15;8.20;;;;;;;;;;5053753;28;20441;-51
2021/03/08 05:26:25;;;;;;;15.00;7.40;;;;;;;;;;5056026;28;20450;-51
2021/03/08 05:28:53;;;;;;;15.80;7.43;;;;;;;;;;5069622;28;20039;-51
2021/03/08 05:31:20;;;;;;;22.48;8.05;;;;;;;;;;5072175;28;20021;-50
2021/03/08 05:33:47;;;;;;;20.15;7.88;;;;;;;;;;5066354;28;20037;-51
2021/03/08 05:36:14;;;;;;;17.73;7.45;;;;;;;;;;5070080;28;20043;-51
2021/03/08 05:38:41;;;;;;;28.27;6.97;;;;;;;;;;5064469;28;20029;-50
2021/03/08 05:41:23;;;;;;;19.98;8.10;;;;;;;;;;5072371;28;20020;-51
2021/03/08 05:43:51;;;;;;;16.70;7.60;;;;;;;;;;5058747;28;20033;-51
2021/03/08 05:46:24;;;;;;;15.63;7.28;;;;;;;;;;5063547;28;20029;-51
2021/03/08 05:49:09;;;;;;;16.67;7.55;;;;;;;;;;5070197;28;20016;-50
2021/03/08 05:51:52;;;;;;;18.67;7.32;;;;;;;;;;5072172;28;20032;-51
2021/03/08 05:54:21;;;;;;;17.00;8.23;;;;;;;;;;5074804;28;20064;-51
2021/03/08 05:56:47;;;;;;;13.05;6.07;;;;;;;;;;5063451;28;20070;-51
2021/03/08 05:59:31;;;;;;;15.45;7.07;;;;;;;;;;5066181;28;20036;-52
2021/03/08 06:02:16;;;;;;;17.75;7.80;;;;;;;;;;5061685;28;20036;-51
2021/03/08 06:04:42;;;;;;;13.93;6.40;;;;;;;;;;5067741;28;20021;-51
2021/03/08 06:07:13;;;;;;;18.13;7.68;;;;;;;;;;5073878;28;20040;-51
2021/03/08 06:09:46;;;;;;;15.52;7.43;;;;;;;;;;5066535;28;20021;-51
2021/03/08 06:12:15;;;;;;;18.25;8.73;;;;;;;;;;5069536;28;20042;-51
2021/03/08 06:14:43;;;;;;;18.92;8.60;;;;;;;;;;5075558;28;20021;-51
2021/03/08 06:17:13;;;;;;;19.52;7.80;;;;;;;;;;5060619;28;20094;-51
2021/03/08 06:19:39;;;;;;;15.88;7.60;;;;;;;;;;5072725;28;20036;-51
2021/03/08 06:22:09;;;;;;;19.55;7.00;;;;;;;;;;5075851;28;20025;-51
2021/03/08 06:24:37;;;;;;;21.15;7.95;;;;;;;;;;5059516;28;20104;-51
2021/03/08 06:27:03;;;;;;;20.98;7.28;;;;;;;;;;5057975;28;20037;-51
2021/03/08 06:29:30;;;;;;;20.23;6.85;;;;;;;;;;5064944;28;20028;-51
2021/03/08 06:31:57;;;;;;;20.10;8.13;;;;;;;;;;5079596;28;20036;-51
2021/03/08 06:34:23;;;;;;;15.18;7.40;;;;;;;;;;5074649;28;20347;-51
2021/03/08 06:36:49;;;;;;;15.52;7.25;;;;;;;;;;5073231;28;20443;-51
2021/03/08 06:39:15;;;;;;;16.52;6.97;;;;;;;;;;5074798;28;20459;-51
2021/03/08 06:41:41;;;;;;;13.18;6.80;;;;;;;;;;5074924;28;20107;-52
2021/03/08 06:44:08;;;;;;;21.45;7.00;;;;;;;;;;5057707;28;20091;-51
2021/03/08 06:46:34;;;;;;;16.08;7.07;;;;;;;;;;5055779;28;20526;-51
2021/03/08 06:49:02;;;;;;;20.42;7.13;;;;;;;;;;5056989;28;20029;-51
2021/03/08 06:51:28;;;;;;;17.98;7.55;;;;;;;;;;5054974;28;20075;-51
2021/03/08 06:53:54;;;;;;;16.95;7.32;;;;;;;;;;5054688;28;20082;-51
2021/03/08 06:56:24;;;;;;;14.48;6.53;;;;;;;;;;5065333;28;20071;-51
2021/03/08 06:59:12;;;;;;;13.48;6.05;;;;;;;;;;5062334;28;20035;-51
2021/03/08 07:01:41;;;;;;;15.30;6.75;;;;;;;;;;5063593;28;20037;-51
2021/03/08 07:04:11;;;;;;;23.92;7.22;;;;;;;;;;5058084;28;20029;-51
2021/03/08 07:06:37;;;;;;;13.90;6.57;;;;;;;;;;5070190;28;20025;-51
2021/03/08 07:09:05;;;;;;;12.75;6.35;;;;;;;;;;5072709;28;20062;-51
2021/03/08 07:11:31;;;;;;;13.70;5.90;;;;;;;;;;5073578;28;20421;-51
2021/03/08 07:13:58;;;;;;;15.85;7.53;;;;;;;;;;5073009;28;20032;-51
2021/03/08 07:16:38;;;;;;;15.07;6.90;;;;;;;;;;5063696;28;20350;-51
2021/03/08 07:19:04;;;;;;;11.27;5.97;;;;;;;;;;5065496;28;20107;-51
2021/03/08 07:21:30;;;;;;;13.77;7.35;;;;;;;;;;5064435;28;20032;-51
2021/03/08 07:24:08;;;;;;;13.95;6.97;;;;;;;;;;5064130;28;20560;-51
2021/03/08 07:26:34;;;;;;;12.30;6.13;;;;;;;;;;5064287;28;20494;-51
2021/03/08 07:29:13;;;;;;;14.77;6.72;;;;;;;;;;5060546;28;20108;-51
2021/03/08 07:31:40;;;;;;;13.05;6.38;;;;;;;;;;5055153;28;20029;-52
2021/03/08 07:34:08;;;;;;;11.93;6.93;;;;;;;;;;5064668;28;20439;-51
2021/03/08 07:36:35;;;;;;;20.45;6.93;;;;;;;;;;5053793;28;20348;-51
2021/03/08 07:39:08;;;;;;;11.30;6.35;;;;;;;;;;5059249;28;20112;-51
2021/03/08 07:41:34;;;;;;;15.05;6.78;;;;;;;;;;5063611;28;20115;-51
2021/03/08 07:44:07;;;;;;;10.23;5.88;;;;;;;;;;5065598;28;20074;-51
2021/03/08 07:46:37;;;;;;;13.73;6.80;;;;;;;;;;5067802;28;20013;-51
2021/03/08 07:49:07;;;;;;;12.20;6.53;;;;;;;;;;5054533;28;20327;-51
2021/03/08 07:51:33;;;;;;;15.32;7.03;;;;;;;;;;5070149;28;20032;-51
2021/03/08 07:54:00;;;;;;;12.55;7.15;;;;;;;;;;5073905;28;20044;-51
2021/03/08 07:56:26;;;;;;;14.50;7.07;;;;;;;;;;5068181;28;20059;-51
2021/03/08 07:58:53;;;;;;;11.75;5.70;;;;;;;;;;5061233;28;20020;-51
2021/03/08 08:01:19;;;;;;;14.75;7.25;;;;;;;;;;5053324;28;20029;-51
2021/03/08 08:03:45;;;;;;;15.77;8.48;;;;;;;;;;5053627;28;20385;-51
2021/03/08 08:06:11;;;;;;;11.35;6.63;;;;;;;;;;5053535;28;20028;-51
2021/03/08 08:08:38;;;;;;;12.52;7.07;;;;;;;;;;5053149;28;20029;-51
2021/03/08 08:11:06;;;;;;;15.55;7.35;;;;;;;;;;5054064;28;20025;-51
2021/03/08 08:13:35;;;;;;;16.05;7.78;;;;;;;;;;5070445;28;20028;-51
2021/03/08 08:16:03;;;;;;;15.70;7.72;;;;;;;;;;5072673;28;20024;-51
2021/03/08 08:18:30;;;;;;;14.98;6.88;;;;;;;;;;5073090;28;20039;-51
2021/03/08 08:20:56;;;;;;;17.30;7.90;;;;;;;;;;5068936;28;20012;-51
2021/03/08 08:23:27;;;;;;;15.98;9.18;;;;;;;;;;5061254;28;20484;-51
2021/03/08 08:25:53;;;;;;;13.23;6.70;;;;;;;;;;5070413;28;20048;-51
2021/03/08 08:28:19;;;;;;;16.67;8.10;;;;;;;;;;5058494;28;20036;-51
2021/03/08 08:30:55;;;;;;;16.25;8.35;;;;;;;;;;5063318;28;20055;-51
2021/03/08 08:33:28;;;;;;;16.52;9.48;;;;;;;;;;5066299;28;20052;-51
2021/03/08 08:36:14;;;;;;;19.58;8.60;;;;;;;;;;5061990;28;20067;-51
2021/03/08 08:38:41;;;;;;;16.02;8.85;;;;;;;;;;5064852;28;20365;-51
2021/03/08 08:41:17;;;;;;;13.88;7.93;;;;;;;;;;5072723;28;20028;-51
2021/03/08 08:43:44;;;;;;;10.45;4.80;;;;;;;;;;5065009;28;20048;-51
2021/03/08 08:46:28;;;;;;;15.73;4.72;;;;;;;;;;5055619;28;20425;-51
2021/03/08 08:49:23;;;;;;;8.20;4.72;;;;;;;;;;5060344;28;20028;-51
2021/03/08 08:51:51;;;;;;;20.55;8.80;;;;;;;;;;5050427;28;20033;-51
2021/03/08 08:54:32;;;;;;;6.80;3.40;;;;;;;;;;5050435;28;20129;-51
2021/03/08 08:56:58;;;;;;;;;;;;;;;;;;5050894;28;20383;-51
2021/03/08 08:59:24;;;;;;;23.38;12.73;;;;;;;;;;5069744;28;19908;-51
2021/03/08 09:01:51;;;;;;;16.85;9.93;;;;;;;;;;5069667;28;20033;-50
2021/03/08 09:04:18;;;;;;;22.13;13.90;;;;;;;;;;5069182;28;20040;-49
2021/03/08 09:06:45;;;;;;;27.77;12.82;;;;;;;;;;5070387;28;20029;-50
2021/03/08 09:09:13;;;;;;;22.92;12.30;;;;;;;;;;5068527;28;20036;-49
2021/03/08 09:11:50;;;;;;;24.35;12.73;;;;;;;;;;5068014;28;20028;-49
2021/03/08 09:14:30;;;;;;;14.20;5.88;;;;;;;;;;5067920;28;20040;-49
2021/03/08 09:17:13;;;;;;;15.52;4.68;;;;;;;;;;5069998;28;20073;-50
2021/03/08 09:19:39;;;;;;;13.77;6.53;;;;;;;;;;5069970;28;20555;-49
2021/03/08 09:22:23;;;;;;;15.55;6.32;;;;;;;;;;5070166;28;20450;-50
2021/03/08 09:24:50;;;;;;;21.25;9.80;;;;;;;;;;5068441;28;20037;-49
2021/03/08 09:27:23;;;;;;;24.23;10.57;;;;;;;;;;5067777;28;20038;-50
2021/03/08 09:29:50;;;;;;;20.42;9.73;;;;;;;;;;5069560;28;20044;-49
2021/03/08 09:32:16;;;;;;;19.23;10.10;;;;;;;;;;5074426;28;20082;-49
2021/03/08 09:34:42;;;;;;;16.85;8.38;;;;;;;;;;5076285;28;20029;-50
2021/03/08 09:37:08;;;;;;;21.10;11.50;;;;;;;;;;5075852;28;20027;-49
2021/03/08 09:39:47;;;;;;;20.55;9.70;;;;;;;;;;5074449;28;20070;-49
2021/03/08 09:42:13;;;;;;;16.88;8.77;;;;;;;;;;5063773;28;20285;-49
2021/03/08 09:44:40;;;;;;;20.05;8.00;;;;;;;;;;5056226;28;20075;-49
2021/03/08 09:47:06;;;;;;;16.05;8.32;;;;;;;;;;5055915;28;20021;-49
2021/03/08 09:49:47;;;;;;;15.25;8.82;;;;;;;;;;5056679;28;20029;-50
2021/03/08 09:52:13;;;;;;;12.90;6.95;;;;;;;;;;5070535;28;20519;-49
2021/03/08 09:54:48;;;;;;;13.38;6.82;;;;;;;;;;5066187;28;20029;-49
2021/03/08 09:57:34;;;;;;;13.07;7.68;;;;;;;;;;5075593;28;20020;-50
2021/03/08 10:00:01;;;;;;;20.42;8.68;;;;;;;;;;5074955;28;20036;-49
2021/03/08 10:02:27;;;;;;;12.90;7.28;;;;;;;;;;5056183;28;20017;-49
2021/03/08 10:04:57;;;;;;;9.77;5.32;;;;;;;;;;5067440;28;20107;-49
2021/03/08 10:07:23;;;;;;;11.35;6.15;;;;;;;;;;5065060;28;20049;-49
2021/03/08 10:09:49;;;;;;;14.70;6.97;;;;;;;;;;5073823;28;20028;-50
2021/03/08 10:12:23;;;;;;;12.52;7.60;;;;;;;;;;5066032;28;20364;-49
2021/03/08 10:14:58;;;;;;;17.80;8.13;;;;;;;;;;5072236;28;20127;-49
2021/03/08 10:17:24;;;;;;;16.55;6.93;;;;;;;;;;5075419;28;20021;-49
2021/03/08 10:19:54;;;;;;;14.82;7.38;;;;;;;;;;5065564;28;20040;-49
2021/03/08 10:22:32;;;;;;;9.75;6.15;;;;;;;;;;5071403;28;20016;-49
2021/03/08 10:25:00;;;;;;;11.48;5.78;;;;;;;;;;5075012;28;20070;-50
2021/03/08 10:27:26;;;;;;;12.55;6.55;;;;;;;;;;5064609;28;20025;-49
2021/03/08 10:29:52;;;;;;;11.50;6.10;;;;;;;;;;5055288;28;20443;-49
2021/03/08 10:32:19;;;;;;;12.15;6.10;;;;;;;;;;5059503;28;20426;-50
2021/03/08 10:34:45;;;;;;;16.98;8.45;;;;;;;;;;5069346;28;20033;-50
2021/03/08 10:37:12;;;;;;;10.63;6.38;;;;;;;;;;5071910;28;20024;-49
2021/03/08 10:39:39;;;;;;;9.55;5.72;;;;;;;;;;5072082;28;20029;-49
2021/03/08 10:42:05;;;;;;;17.10;6.80;;;;;;;;;;5071137;28;20059;-49
2021/03/08 10:44:31;;;;;;;12.10;5.93;;;;;;;;;;5067442;28;20052;-49
2021/03/08 10:46:57;;;;;;;13.45;5.60;;;;;;;;;;5074581;28;20020;-49
2021/03/08 10:49:24;;;;;;;15.48;5.88;;;;;;;;;;5074714;28;20328;-49
2021/03/08 10:51:50;;;;;;;14.43;6.90;;;;;;;;;;5065493;28;20024;-49
2021/03/08 10:54:18;;;;;;;16.23;6.68;;;;;;;;;;5067575;28;20043;-49
2021/03/08 10:56:44;;;;;;;12.60;5.15;;;;;;;;;;5068847;28;20032;-50
2021/03/08 10:59:24;;;;;;;14.25;6.82;;;;;;;;;;5073758;28;20161;-49
2021/03/08 11:02:03;;;;;;;11.60;6.05;;;;;;;;;;5072229;28;20064;-49
2021/03/08 11:04:29;;;;;;;14.43;7.13;;;;;;;;;;5067080;28;20104;-49
2021/03/08 11:06:55;;;;;;;14.30;4.82;;;;;;;;;;5063259;28;20024;-49
2021/03/08 11:09:32;;;;;;;15.60;6.65;;;;;;;;;;5067278;28;20036;-50
2021/03/08 11:11:58;;;;;;;7.60;4.63;;;;;;;;;;5073935;28;20373;-49
2021/03/08 11:14:25;;;;;;;6.53;2.47;;;;;;;;;;5069411;28;20074;-49
2021/03/08 11:16:55;;;;;;;8.75;4.70;;;;;;;;;;5061104;28;20025;-49
2021/03/08 11:19:22;;;;;;;5.57;3.20;;;;;;;;;;5063671;28;20025;-50
2021/03/08 11:22:07;;;;;;;10.52;5.80;;;;;;;;;;5070731;28;20151;-49
2021/03/08 11:24:43;;;;;;;10.02;5.55;;;;;;;;;;5065194;28;20037;-49
2021/03/08 11:27:09;;;;;;;13.30;5.00;;;;;;;;;;5058293;28;20021;-49
2021/03/08 11:29:36;;;;;;;4.05;2.63;;;;;;;;;;5054694;28;20021;-49
2021/03/08 11:32:02;;;;;;;12.18;5.20;;;;;;;;;;5058840;28;20024;-50
2021/03/08 11:34:38;;;;;;;8.25;5.15;;;;;;;;;;5070206;28;20075;-49
2021/03/08 11:37:17;;;;;;;9.70;4.72;;;;;;;;;;5054891;28;20028;-49
2021/03/08 11:39:53;;;;;;;10.00;5.50;;;;;;;;;;5064311;28;20037;-49
2021/03/08 11:42:20;;;;;;;12.00;6.35;;;;;;;;;;5056000;28;20158;-49
2021/03/08 11:44:47;;;;;;;13.65;6.10;;;;;;;;;;5073026;28;20023;-49
2021/03/08 11:47:13;;;;;;;9.75;4.85;;;;;;;;;;5082820;28;20024;-49
2021/03/08 11:49:40;;;;;;;13.32;5.00;;;;;;;;;;5060264;28;20477;-49
2021/03/08 11:52:06;;;;;;;13.63;6.68;;;;;;;;;;5073861;28;20033;-49
2021/03/08 11:54:32;;;;;;;13.27;6.22;;;;;;;;;;5064877;28;20043;-49
2021/03/08 11:56:59;;;;;;;13.30;5.80;;;;;;;;;;5089768;28;20024;-49
2021/03/08 11:59:25;;;;;;;11.90;6.07;;;;;;;;;;5074914;28;20032;-49
2021/03/08 12:01:51;;;;;;;9.55;5.95;;;;;;;;;;5059896;28;20037;-49
2021/03/08 12:04:18;;;;;;;10.18;6.07;;;;;;;;;;5074813;28;20331;-49
2021/03/08 12:06:44;;;;;;;11.50;2.92;;;;;;;;;;5071726;28;20032;-49
2021/03/08 12:09:10;;;;;;;8.50;4.75;;;;;;;;;;5089204;28;20082;-49
2021/03/08 12:11:36;;;;;;;11.27;5.78;;;;;;;;;;5076309;28;20036;-49
2021/03/08 12:14:02;;;;;;;16.95;5.28;;;;;;;;;;5071853;28;20033;-49
2021/03/08 12:16:28;;;;;;;10.00;5.40;;;;;;;;;;5058513;28;20036;-49
2021/03/08 12:18:54;;;;;;;9.38;4.97;;;;;;;;;;5067794;28;20047;-49
2021/03/08 12:21:20;;;;;;;10.02;5.55;;;;;;;;;;5090099;28;20031;-49
2021/03/08 12:23:46;;;;;;;8.98;4.80;;;;;;;;;;5079481;28;20047;-49
2021/03/08 12:26:14;;;;;;;0.65;0.63;;;;;;;;;;5076308;28;20521;-49
2021/03/08 12:28:40;;;;;;;8.60;4.95;;;;;;;;;;5064205;28;20121;-49
2021/03/08 12:31:06;;;;;;;12.73;7.05;;;;;;;;;;5081501;28;20021;-49
2021/03/08 12:33:37;;;;;;;9.73;4.43;;;;;;;;;;5075472;28;20038;-49
2021/03/08 12:36:03;;;;;;;10.35;4.82;;;;;;;;;;5084522;28;20114;-49
2021/03/08 12:38:29;;;;;;;9.90;4.90;;;;;;;;;;5069850;28;20060;-49
2021/03/08 12:40:55;;;;;;;7.40;4.38;;;;;;;;;;5088852;28;20016;-49
2021/03/08 12:43:21;;;;;;;15.13;5.40;;;;;;;;;;5076161;28;20039;-49
2021/03/08 12:45:47;;;;;;;7.25;4.05;;;;;;;;;;5083830;28;20028;-49
2021/03/08 12:48:13;;;;;;;10.95;5.97;;;;;;;;;;5075143;28;20373;-49
2021/03/08 12:50:39;;;;;;;13.20;6.53;;;;;;;;;;5079091;28;20024;-49
2021/03/08 12:53:05;;;;;;;12.60;6.88;;;;;;;;;;5089436;28;20040;-49
2021/03/08 12:55:31;;;;;;;10.93;4.70;;;;;;;;;;5064651;28;20039;-49
2021/03/08 12:57:57;;;;;;;8.60;5.00;;;;;;;;;;5071612;28;20457;-49
2021/03/08 13:00:23;;;;;;;7.78;4.47;;;;;;;;;;5091471;28;20028;-49
2021/03/08 13:02:49;;;;;;;6.72;4.50;;;;;;;;;;5074576;28;20427;-49
2021/03/08 13:05:15;;;;;;;12.13;6.50;;;;;;;;;;5071107;28;20056;-49
2021/03/08 13:07:41;;;;;;;13.32;4.68;;;;;;;;;;5075014;28;20030;-49
2021/03/08 13:10:08;;;;;;;11.15;5.70;;;;;;;;;;5068774;28;20020;-49
2021/03/08 13:12:34;;;;;;;9.68;5.55;;;;;;;;;;5072100;28;20029;-49
2021/03/08 13:15:00;;;;;;;13.13;6.50;;;;;;;;;;5077075;28;20112;-50
2021/03/08 13:17:26;;;;;;;18.40;6.95;;;;;;;;;;5091913;28;20339;-50
2021/03/08 13:19:52;;;;;;;12.13;5.55;;;;;;;;;;5067844;28;20086;-49
2021/03/08 13:22:18;;;;;;;11.70;6.28;;;;;;;;;;5087031;28;20027;-49
2021/03/08 13:24:44;;;;;;;10.00;4.93;;;;;;;;;;5068044;28;20493;-49
2021/03/08 13:27:10;;;;;;;11.85;6.60;;;;;;;;;;5092564;28;20522;-49
2021/03/08 13:29:36;;;;;;;11.38;6.55;;;;;;;;;;5071745;28;20073;-50
2021/03/08 13:32:03;;;;;;;10.63;5.88;;;;;;;;;;5074750;28;20078;-49
2021/03/08 13:34:29;;;;;;;9.85;5.07;;;;;;;;;;5077554;28;20036;-49
2021/03/08 13:36:55;;;;;;;12.48;6.10;;;;;;;;;;5068273;28;20399;-49
2021/03/08 13:39:22;;;;;;;8.80;5.32;;;;;;;;;;5066610;28;20141;-49
2021/03/08 13:41:48;;;;;;;9.85;5.90;;;;;;;;;;5077174;28;20028;-49
2021/03/08 13:44:14;;;;;;;12.13;6.15;;;;;;;;;;5075475;28;20331;-49
2021/03/08 13:46:40;;;;;;;12.52;5.47;;;;;;;;;;5082109;28;20035;-49
2021/03/08 13:49:06;;;;;;;12.27;6.30;;;;;;;;;;5070398;28;20029;-49
2021/03/08 13:51:32;;;;;;;14.32;6.18;;;;;;;;;;5067358;28;20326;-49
2021/03/08 13:53:58;;;;;;;10.57;5.88;;;;;;;;;;5091740;28;20040;-49
2021/03/08 13:56:25;;;;;;;10.98;5.93;;;;;;;;;;5084035;28;20035;-49
2021/03/08 13:58:51;;;;;;;8.88;4.75;;;;;;;;;;5070037;28;20024;-49
2021/03/08 14:01:17;;;;;;;9.23;5.13;;;;;;;;;;5072060;28;20074;-49
2021/03/08 14:03:44;;;;;;;14.23;6.35;;;;;;;;;;5089284;28;20106;-49
2021/03/08 14:06:11;;;;;;;10.10;5.47;;;;;;;;;;5081697;28;20036;-49
2021/03/08 14:08:37;;;;;;;9.95;5.07;;;;;;;;;;5081710;28;20028;-49
2021/03/08 14:11:03;;;;;;;10.73;4.93;;;;;;;;;;5083921;28;20024;-49
2021/03/08 14:13:29;;;;;;;11.10;5.20;;;;;;;;;;5090586;28;20106;-49
2021/03/08 14:15:55;;;;;;;9.38;5.53;;;;;;;;;;5068039;28;20336;-49
2021/03/08 14:18:21;;;;;;;10.98;4.75;;;;;;;;;;5058982;28;20514;-49
2021/03/08 14:20:47;;;;;;;13.70;5.68;;;;;;;;;;5084914;28;20051;-50
2021/03/08 14:23:13;;;;;;;16.55;5.80;;;;;;;;;;5072367;28;20049;-50
2021/03/08 14:25:39;;;;;;;9.43;4.68;;;;;;;;;;5085677;28;20025;-49
2021/03/08 14:28:06;;;;;;;12.30;6.03;;;;;;;;;;5072751;28;20057;-49
2021/03/08 14:30:32;;;;;;;6.55;3.92;;;;;;;;;;5082608;28;20450;-49
2021/03/08 14:32:58;;;;;;;11.35;5.45;;;;;;;;;;5069268;28;20463;-49
2021/03/08 14:35:25;;;;;;;9.65;4.55;;;;;;;;;;5084141;28;20451;-49
2021/03/08 14:37:51;;;;;;;13.27;5.15;;;;;;;;;;5069380;28;20020;-49